Time;durP1;ratioP1;P1;durP2;ratioP2;P2;SDS_P1;SDS_P2;PMS_P1;PMS_P2;Temp;Humidity;BMP_temperature;BMP_pressure;BME280_temperature;BME280_humidity;BME280_pressure;Samples;Min_cycle;Max_cycle;Signal;HPM_P1;HPM_P2
2023/09/29 00:01:01;;;;;;;;;;;15.60;99.90;;;;;;5118343;27;20325;-79
2023/09/29 00:03:27;;;;;;;;;;;15.60;99.90;;;;;;5101759;28;20430;-79
2023/09/29 00:05:53;;;;;;;;;;;15.60;99.90;;;;;;5117863;27;19931;-78
2023/09/29 00:08:22;;;;;;;;;;;15.60;99.90;;;;;;5084413;28;19928;-78
2023/09/29 00:10:49;;;;;;;;;;;15.50;99.90;;;;;;5087171;28;19927;-78
2023/09/29 00:13:16;;;;;;;;;;;15.50;99.90;;;;;;5104803;28;20045;-78
2023/09/29 00:15:42;;;;;;;;;;;15.50;99.90;;;;;;5102133;28;19927;-78
2023/09/29 00:18:08;;;;;;;;;;;15.60;99.90;;;;;;5101628;28;20019;-79
2023/09/29 00:20:34;;;;;;;;;;;15.50;99.90;;;;;;5117769;27;19963;-78
2023/09/29 00:23:00;;;;;;;;;;;15.50;99.90;;;;;;5102303;27;19964;-79
2023/09/29 00:25:26;;;;;;;;;;;15.50;99.90;;;;;;5085363;28;20354;-79
2023/09/29 00:27:52;;;;;;;;;;;15.50;99.90;;;;;;5101646;27;19924;-78
2023/09/29 00:30:18;;;;;;;;;;;15.60;99.90;;;;;;5086486;28;20394;-78
2023/09/29 00:32:45;;;;;;;;;;;15.50;99.90;;;;;;5086212;28;19924;-78
2023/09/29 00:35:11;;;;;;;;;;;15.50;99.90;;;;;;5087061;28;20019;-79
2023/09/29 00:37:37;;;;;;;;;;;15.50;99.90;;;;;;5085648;28;19928;-79
2023/09/29 00:40:11;;;;;;;;;;;15.50;99.90;;;;;;5102766;27;20963;-78
2023/09/29 00:42:36;;;;;;;;;;;15.60;99.90;;;;;;5094585;28;20015;-78
2023/09/29 00:45:03;;;;;;;;;;;15.60;99.90;;;;;;5092482;28;20023;-79
2023/09/29 00:47:29;;;;;;;;;;;15.60;99.90;;;;;;5097936;28;19988;-78
2023/09/29 00:49:54;;;;;;;;;;;15.60;99.90;;;;;;5095914;28;19935;-78
2023/09/29 00:52:23;;;;;;;;;;;15.60;99.90;;;;;;5110053;27;19932;-78
2023/09/29 00:54:50;;;;;;;;;;;15.60;99.90;;;;;;5112274;27;19937;-78
2023/09/29 00:57:16;;;;;;;;;;;15.60;99.90;;;;;;5135972;27;20442;-76
2023/09/29 00:59:43;;;;;;;;;;;15.60;99.90;;;;;;5137050;27;19924;-76
2023/09/29 01:02:10;;;;;;;;;;;15.60;99.90;;;;;;5101693;28;20382;-76
2023/09/29 01:04:36;;;;;;;;;;;15.60;99.90;;;;;;5099893;28;19936;-76
2023/09/29 01:07:07;;;;;;;;;;;15.60;99.90;;;;;;5077485;28;19923;-76
2023/09/29 01:09:32;;;;;;;;;;;15.50;99.90;;;;;;5099133;28;19924;-75
2023/09/29 01:11:58;;;;;;;;;;;15.50;99.90;;;;;;5103275;28;19999;-75
2023/09/29 01:14:25;;;;;;;;;;;15.50;99.90;;;;;;5087932;28;20662;-75
2023/09/29 01:16:51;;;;;;;;;;;15.50;99.90;;;;;;5094757;28;19924;-75
2023/09/29 01:19:18;;;;;;;;;;;15.50;99.90;;;;;;5112983;27;20456;-75
2023/09/29 01:21:46;;;;;;;;;;;15.50;99.90;;;;;;5080101;28;19981;-76
2023/09/29 01:24:15;;;;;;;;;;;15.50;99.90;;;;;;5079732;28;19954;-75
2023/09/29 01:26:47;;;;;;;;;;;15.50;99.90;;;;;;5098619;28;20402;-76
2023/09/29 01:29:12;;;;;;;;;;;15.50;99.90;;;;;;5113709;27;19977;-75
2023/09/29 01:31:39;;;;;;;;;;;15.50;99.90;;;;;;5099033;28;19923;-75
2023/09/29 01:34:04;;;;;;;;;;;15.50;99.90;;;;;;5114637;27;19974;-75
2023/09/29 01:36:30;;;;;;;;;;;15.50;99.90;;;;;;5094339;28;19967;-76
2023/09/29 01:38:56;;;;;;;;;;;15.50;99.90;;;;;;5101873;28;19931;-75
2023/09/29 01:41:25;;;;;;;;;;;15.50;99.90;;;;;;5095974;28;19930;-76
2023/09/29 01:43:52;;;;;;;;;;;15.50;99.90;;;;;;5078097;28;19934;-77
2023/09/29 01:46:18;;;;;;;;;;;15.50;99.90;;;;;;5080918;28;19924;-77
2023/09/29 01:48:44;;;;;;;;;;;15.50;99.90;;;;;;5131527;27;20006;-76
2023/09/29 01:51:10;;;;;;;;;;;15.50;99.90;;;;;;5113439;27;20539;-77
2023/09/29 01:53:36;;;;;;;;;;;15.50;99.90;;;;;;5081546;28;20022;-76
2023/09/29 01:56:04;;;;;;;;;;;15.50;99.90;;;;;;5111366;27;20022;-77
2023/09/29 01:58:31;;;;;;;;;;;15.50;99.90;;;;;;5094185;28;19932;-76
2023/09/29 02:00:57;;;;;;;;;;;15.50;99.90;;;;;;5128311;27;21195;-76
2023/09/29 02:03:23;;;;;;;;;;;15.50;99.90;;;;;;5098214;27;20715;-76
2023/09/29 02:05:49;;;;;;;;;;;15.50;99.90;;;;;;5110653;27;19939;-76
2023/09/29 02:08:15;;;;;;;;;;;15.50;99.90;;;;;;5097363;28;20317;-77
2023/09/29 02:10:41;;;;;;;;;;;15.60;99.90;;;;;;5112798;27;19970;-76
2023/09/29 02:13:08;;;;;;;;;;;15.60;99.90;;;;;;5109827;27;20181;-77
2023/09/29 02:15:34;;;;;;;;;;;15.60;99.90;;;;;;5130365;27;19994;-77
2023/09/29 02:18:00;;;;;;;;;;;15.50;99.90;;;;;;5111175;27;19959;-76
2023/09/29 02:20:28;;;;;;;;;;;15.60;99.90;;;;;;5093792;28;20467;-76
2023/09/29 02:22:55;;;;;;;;;;;15.60;99.90;;;;;;5081533;28;19924;-77
2023/09/29 02:25:25;;;;;;;;;;;15.60;99.90;;;;;;5128034;27;19963;-76
2023/09/29 02:27:55;;;;;;;;;;;15.60;99.90;;;;;;5072873;28;19923;-74
2023/09/29 02:30:21;;;;;;;;;;;15.60;99.90;;;;;;5126665;27;20374;-76
2023/09/29 02:32:47;;;;;;;;;;;15.60;99.90;;;;;;5093469;28;19990;-76
2023/09/29 02:35:12;;;;;;;;;;;15.60;99.90;;;;;;5095542;28;19927;-75
2023/09/29 02:37:41;;;;;;;;;;;15.60;99.90;;;;;;5098192;28;19931;-76
2023/09/29 02:40:14;;;;;;;;;;;15.60;99.90;;;;;;5081018;28;19923;-75
2023/09/29 02:42:41;;;;;;;;;;;15.60;99.90;;;;;;5099250;28;19923;-76
2023/09/29 02:45:07;;;;;;;;;;;15.60;99.90;;;;;;5079249;28;20010;-75
2023/09/29 02:47:33;;;;;;;;;;;15.70;99.90;;;;;;5080715;28;19927;-76
2023/09/29 02:49:59;;;;;;;;;;;15.70;99.90;;;;;;5096949;28;20170;-76
2023/09/29 02:52:28;;;;;;;;;;;15.70;99.90;;;;;;5098354;28;19931;-76
2023/09/29 02:54:54;;;;;;;;;;;15.70;99.90;;;;;;5079258;28;19932;-76
2023/09/29 02:57:21;;;;;;;;;;;15.70;99.90;;;;;;5098996;28;19957;-76
2023/09/29 02:59:46;;;;;;;;;;;15.70;99.90;;;;;;5097969;28;19928;-75
2023/09/29 03:02:12;;;;;;;;;;;15.70;99.90;;;;;;5128715;27;19932;-76
2023/09/29 03:04:43;;;;;;;;;;;15.70;99.90;;;;;;5098922;28;20472;-76
2023/09/29 03:07:13;;;;;;;;;;;15.70;99.90;;;;;;5102921;27;20006;-76
2023/09/29 03:09:39;;;;;;;;;;;15.80;99.90;;;;;;5103556;28;19928;-76
2023/09/29 03:12:04;;;;;;;;;;;15.70;99.90;;;;;;5102045;28;19924;-75
2023/09/29 03:14:30;;;;;;;;;;;15.70;99.90;;;;;;5102575;27;19930;-76
2023/09/29 03:17:00;;;;;;;;;;;15.70;99.90;;;;;;5100765;27;19924;-76
2023/09/29 03:19:26;;;;;;;;;;;15.80;99.90;;;;;;5119464;27;20303;-76
2023/09/29 03:21:52;;;;;;;;;;;15.80;99.90;;;;;;5100743;27;19936;-76
2023/09/29 03:24:18;;;;;;;;;;;15.80;99.90;;;;;;5102511;28;19927;-75
2023/09/29 03:26:45;;;;;;;;;;;15.80;99.90;;;;;;5084526;28;19976;-76
2023/09/29 03:29:10;;;;;;;;;;;15.80;99.90;;;;;;5101186;28;20399;-76
2023/09/29 03:31:36;;;;;;;;;;;15.80;99.90;;;;;;5098245;28;19928;-76
2023/09/29 03:34:02;;;;;;;;;;;15.80;99.90;;;;;;5099015;28;19989;-76
2023/09/29 03:36:30;;;;;;;;;;;15.80;99.90;;;;;;5101800;28;19931;-75
2023/09/29 03:38:56;;;;;;;;;;;15.80;99.90;;;;;;5135174;27;19927;-76
2023/09/29 03:41:23;;;;;;;;;;;15.80;99.90;;;;;;5084740;28;19959;-75
2023/09/29 03:43:50;;;;;;;;;;;15.80;99.90;;;;;;5100247;28;19939;-75
2023/09/29 03:46:17;;;;;;;;;;;15.80;99.90;;;;;;5102760;28;20309;-75
2023/09/29 03:48:46;;;;;;;;;;;15.90;99.90;;;;;;5084123;28;20474;-75
2023/09/29 03:51:24;;;;;;;;;;;15.90;99.90;;;;;;5133860;27;20036;-76
2023/09/29 03:53:54;;;;;;;;;;;15.90;99.90;;;;;;5084697;28;19942;-74
2023/09/29 03:56:23;;;;;;;;;;;15.90;99.90;;;;;;5098451;28;19932;-75
2023/09/29 03:58:55;;;;;;;;;;;15.90;99.90;;;;;;5083611;28;19953;-75
2023/09/29 04:01:21;;;;;;;;;;;15.90;99.90;;;;;;5098001;27;20305;-76
2023/09/29 04:03:47;;;;;;;;;;;16.00;99.90;;;;;;5075626;28;19931;-76
2023/09/29 04:06:13;;;;;;;;;;;16.00;99.90;;;;;;5101565;28;20535;-76
2023/09/29 04:08:38;;;;;;;;;;;16.00;99.90;;;;;;5099657;28;20349;-75
2023/09/29 04:11:04;;;;;;;;;;;16.00;99.90;;;;;;5085335;28;19924;-75
2023/09/29 04:13:30;;;;;;;;;;;16.00;99.90;;;;;;5083724;28;19923;-75
2023/09/29 04:15:55;;;;;;;;;;;16.00;99.90;;;;;;5130827;27;20393;-75
2023/09/29 04:18:21;;;;;;;;;;;16.10;99.90;;;;;;5100836;28;19927;-76
2023/09/29 04:20:46;;;;;;;;;;;16.10;99.90;;;;;;5133347;27;19977;-75
2023/09/29 04:23:12;;;;;;;;;;;16.10;99.90;;;;;;5084638;28;20145;-75
2023/09/29 04:25:38;;;;;;;;;;;16.10;99.90;;;;;;5100283;28;20374;-76
2023/09/29 04:28:06;;;;;;;;;;;16.10;99.90;;;;;;5099208;28;19943;-76
2023/09/29 04:30:32;;;;;;;;;;;16.20;99.90;;;;;;5102320;28;19924;-76
2023/09/29 04:32:57;;;;;;;;;;;16.20;99.90;;;;;;5100061;27;20315;-76
2023/09/29 04:35:23;;;;;;;;;;;16.20;99.90;;;;;;5102109;28;20394;-76
2023/09/29 04:37:52;;;;;;;;;;;16.30;99.90;;;;;;5080364;28;20053;-75
2023/09/29 04:40:18;;;;;;;;;;;16.20;99.90;;;;;;5136082;27;19939;-75
2023/09/29 04:42:44;;;;;;;;;;;16.30;99.90;;;;;;5081415;28;19932;-77
2023/09/29 04:45:09;;;;;;;;;;;16.30;99.90;;;;;;5134707;27;19931;-75
2023/09/29 04:47:35;;;;;;;;;;;16.30;99.90;;;;;;5102975;28;20404;-75
2023/09/29 04:50:00;;;;;;;;;;;16.30;99.90;;;;;;5080080;28;20015;-75
2023/09/29 04:52:26;;;;;;;;;;;16.40;99.90;;;;;;5118677;27;19927;-74
2023/09/29 04:54:52;;;;;;;;;;;16.40;99.90;;;;;;5099571;28;20409;-76
2023/09/29 04:57:18;;;;;;;;;;;16.40;99.90;;;;;;5101723;27;19932;-76
2023/09/29 04:59:43;;;;;;;;;;;16.40;99.90;;;;;;5082602;28;19930;-76
2023/09/29 05:02:09;;;;;;;;;;;16.40;99.90;;;;;;5119013;27;19927;-76
2023/09/29 05:04:39;;;;;;;;;;;16.50;99.90;;;;;;5098015;28;20151;-76
2023/09/29 05:07:04;;;;;;;;;;;16.50;99.90;;;;;;5116931;27;20366;-79
2023/09/29 05:09:30;;;;;;;;;;;16.50;99.90;;;;;;5132413;27;19931;-78
2023/09/29 05:11:56;;;;;;;;;;;16.50;99.90;;;;;;5101104;28;20393;-78
2023/09/29 05:14:21;;;;;;;;;;;16.60;99.90;;;;;;5131136;27;19939;-79
2023/09/29 05:16:47;;;;;;;;;;;16.60;99.90;;;;;;5084821;28;19928;-78
2023/09/29 05:19:13;;;;;;;;;;;16.60;99.90;;;;;;5100109;28;19928;-78
2023/09/29 05:21:39;;;;;;;;;;;16.60;99.90;;;;;;5082399;28;19939;-78
2023/09/29 05:24:05;;;;;;;;;;;16.60;99.90;;;;;;5084572;28;19932;-78
2023/09/29 05:26:30;;;;;;;;;;;16.60;99.90;;;;;;5099956;28;19971;-78
2023/09/29 05:28:56;;;;;;;;;;;16.70;99.90;;;;;;5114512;27;19924;-78
2023/09/29 05:31:22;;;;;;;;;;;16.60;99.90;;;;;;5100989;28;20499;-78
2023/09/29 05:33:48;;;;;;;;;;;16.60;99.90;;;;;;5099936;28;19931;-78
2023/09/29 05:36:14;;;;;;;;;;;16.70;99.90;;;;;;5099573;28;19928;-78
2023/09/29 05:38:39;;;;;;;;;;;16.70;99.90;;;;;;5099946;28;19935;-78
2023/09/29 05:41:05;;;;;;;;;;;16.70;99.90;;;;;;5114551;27;19923;-78
2023/09/29 05:43:30;;;;;;;;;;;16.70;99.90;;;;;;5097987;28;20400;-78
2023/09/29 05:45:56;;;;;;;;;;;16.70;99.90;;;;;;5100163;28;19938;-78
2023/09/29 05:48:22;;;;;;;;;;;16.70;99.90;;;;;;5098906;28;19932;-78
2023/09/29 05:50:49;;;;;;;;;;;16.70;99.90;;;;;;5095465;28;19955;-77
2023/09/29 05:53:14;;;;;;;;;;;16.70;99.90;;;;;;5082661;28;20010;-77
2023/09/29 05:55:40;;;;;;;;;;;16.70;99.90;;;;;;5116193;27;20010;-77
2023/09/29 05:58:06;;;;;;;;;;;16.70;99.90;;;;;;5081803;28;20477;-77
2023/09/29 06:00:31;;;;;;;;;;;16.70;99.90;;;;;;5084049;28;20386;-77
2023/09/29 06:02:59;;;;;;;;;;;16.70;99.90;;;;;;5097158;28;19939;-77
2023/09/29 06:05:25;;;;;;;;;;;16.70;99.90;;;;;;5099821;28;19924;-76
2023/09/29 06:07:51;;;;;;;;;;;16.70;99.90;;;;;;5079656;28;19928;-76
2023/09/29 06:10:16;;;;;;;;;;;16.60;99.90;;;;;;5097945;28;21942;-77
2023/09/29 06:12:42;;;;;;;;;;;16.70;99.90;;;;;;5115233;27;19967;-76
2023/09/29 06:15:11;;;;;;;;;;;16.70;99.90;;;;;;5080641;28;19932;-76
2023/09/29 06:17:37;;;;;;;;;;;16.70;99.90;;;;;;5115007;27;20018;-76
2023/09/29 06:20:09;;;;;;;;;;;16.70;99.90;;;;;;5097398;28;22396;-76
2023/09/29 06:22:34;;;;;;;;;;;16.70;99.90;;;;;;5132223;27;19924;-76
2023/09/29 06:25:00;;;;;;;;;;;16.70;99.90;;;;;;5096812;28;19984;-76
2023/09/29 06:27:27;;;;;;;;;;;16.70;99.90;;;;;;5098421;28;19928;-76
2023/09/29 06:29:52;;;;;;;;;;;16.70;99.90;;;;;;5096331;28;19928;-76
2023/09/29 06:32:22;;;;;;;;;;;16.70;99.90;;;;;;5110547;27;19977;-76
2023/09/29 06:34:47;;;;;;;;;;;16.70;99.90;;;;;;5099321;28;20015;-80
2023/09/29 06:37:13;;;;;;;;;;;16.80;99.90;;;;;;5078299;28;20031;-79
2023/09/29 06:39:39;;;;;;;;;;;16.70;99.90;;;;;;5094166;27;19932;-81
2023/09/29 06:42:05;;;;;;;;;;;16.80;99.90;;;;;;5081651;28;19932;-81
2023/09/29 06:44:32;;;;;;;;;;;16.80;99.90;;;;;;5097993;27;19931;-81
2023/09/29 06:46:57;;;;;;;;;;;16.80;99.90;;;;;;5095337;28;19931;-80
2023/09/29 06:49:23;;;;;;;;;;;16.80;99.90;;;;;;5113452;27;20610;-81
2023/09/29 06:51:49;;;;;;;;;;;16.80;99.90;;;;;;5096806;28;19923;-82
2023/09/29 06:54:15;;;;;;;;;;;16.80;99.90;;;;;;5096998;28;19924;-80
2023/09/29 06:56:40;;;;;;;;;;;16.80;99.90;;;;;;5097883;27;19924;-81
2023/09/29 06:59:07;;;;;;;;;;;16.80;99.90;;;;;;5099733;28;19932;-81
2023/09/29 07:01:36;;;;;;;;;;;16.80;99.90;;;;;;5114351;27;20961;-81
2023/09/29 07:04:02;;;;;;;;;;;16.90;99.90;;;;;;5096949;28;20596;-81
2023/09/29 07:06:28;;;;;;;;;;;16.90;99.90;;;;;;5114268;27;19927;-80
2023/09/29 07:08:53;;;;;;;;;;;16.90;99.90;;;;;;5097652;28;19931;-81
2023/09/29 07:11:19;;;;;;;;;;;17.00;99.90;;;;;;5113232;27;19927;-81
2023/09/29 07:13:45;;;;;;;;;;;17.00;99.90;;;;;;5099106;28;19927;-81
2023/09/29 07:16:11;;;;;;;;;;;17.00;99.90;;;;;;5098752;28;20081;-81
2023/09/29 07:18:36;;;;;;;;;;;17.10;99.90;;;;;;5097341;28;20026;-80
2023/09/29 07:21:02;;;;;;;;;;;17.10;99.90;;;;;;5077837;28;19932;-81
2023/09/29 07:23:30;;;;;;;;;;;17.10;99.90;;;;;;5096723;28;19930;-81
2023/09/29 07:25:55;;;;;;;;;;;17.10;99.90;;;;;;5129995;27;20109;-80
2023/09/29 07:28:21;;;;;;;;;;;17.10;99.90;;;;;;5080371;28;20034;-80
2023/09/29 07:30:47;;;;;;;;;;;17.20;99.90;;;;;;5081761;28;19950;-81
2023/09/29 07:33:13;;;;;;;;;;;17.20;99.90;;;;;;5082807;28;19924;-80
2023/09/29 07:35:38;;;;;;;;;;;17.20;99.90;;;;;;5094881;28;19924;-81
2023/09/29 07:38:05;;;;;;;;;;;17.30;99.90;;;;;;5096185;28;19924;-81
2023/09/29 07:40:32;;;;;;;;;;;17.30;99.90;;;;;;5096764;28;19938;-80
2023/09/29 07:42:58;;;;;;;;;;;17.50;99.90;;;;;;5130306;27;19932;-81
2023/09/29 07:45:23;;;;;;;;;;;17.50;99.90;;;;;;5098792;28;20488;-80
2023/09/29 07:47:49;;;;;;;;;;;17.50;99.90;;;;;;5094730;28;19928;-81
2023/09/29 07:50:15;;;;;;;;;;;17.60;99.90;;;;;;5097891;28;19932;-81
2023/09/29 07:52:40;;;;;;;;;;;17.70;99.90;;;;;;5114986;27;19931;-81
2023/09/29 07:55:06;;;;;;;;;;;17.70;99.90;;;;;;5100076;28;19928;-80
2023/09/29 07:57:32;;;;;;;;;;;17.90;99.90;;;;;;5097280;28;20760;-80
2023/09/29 07:59:58;;;;;;;;;;;17.90;99.90;;;;;;5100863;28;19938;-81
2023/09/29 08:02:24;;;;;;;;;;;18.00;99.90;;;;;;5134063;27;19939;-80
2023/09/29 08:04:50;;;;;;;;;;;18.10;99.90;;;;;;5085407;28;19932;-81
2023/09/29 08:07:15;;;;;;;;;;;18.30;99.90;;;;;;5098566;27;19923;-81
2023/09/29 08:09:41;;;;;;;;;;;18.40;99.90;;;;;;5101109;28;19927;-81
2023/09/29 08:12:07;;;;;;;;;;;18.40;99.90;;;;;;5099456;28;19950;-81
2023/09/29 08:14:32;;;;;;;;;;;18.60;99.90;;;;;;5084554;28;19932;-81
2023/09/29 08:16:58;;;;;;;;;;;18.70;99.90;;;;;;5080093;28;19932;-82
2023/09/29 08:19:24;;;;;;;;;;;18.80;99.90;;;;;;5080324;28;19931;-81
2023/09/29 08:21:50;;;;;;;;;;;18.90;99.90;;;;;;5098798;27;19927;-81
2023/09/29 08:24:15;;;;;;;;;;;19.00;99.90;;;;;;5115437;27;19927;-81
2023/09/29 08:26:41;;;;;;;;;;;19.10;99.90;;;;;;5099318;28;19950;-82
2023/09/29 08:29:09;;;;;;;;;;;19.10;99.90;;;;;;5100526;28;21608;-80
2023/09/29 08:31:35;;;;;;;;;;;19.20;99.90;;;;;;5082013;28;19931;-81
2023/09/29 08:34:01;;;;;;;;;;;19.30;99.90;;;;;;5101116;28;19923;-81
2023/09/29 08:36:27;;;;;;;;;;;19.30;99.90;;;;;;5081675;28;20410;-81
2023/09/29 08:38:53;;;;;;;;;;;19.40;99.90;;;;;;5101853;28;19942;-82
2023/09/29 08:41:23;;;;;;;;;;;19.40;99.90;;;;;;5115004;27;20471;-81
2023/09/29 08:43:49;;;;;;;;;;;19.50;99.90;;;;;;5082724;28;19932;-82
2023/09/29 08:46:15;;;;;;;;;;;19.50;99.90;;;;;;5081391;28;20366;-82
2023/09/29 08:48:42;;;;;;;;;;;19.50;99.90;;;;;;5099844;28;20018;-81
2023/09/29 08:51:11;;;;;;;;;;;19.60;99.90;;;;;;5083638;28;19939;-82
2023/09/29 08:53:36;;;;;;;;;;;19.70;99.90;;;;;;5098510;28;19924;-82
2023/09/29 08:56:12;;;;;;;;;;;19.80;99.90;;;;;;5116230;27;19938;-81
2023/09/29 08:58:41;;;;;;;;;;;19.90;99.90;;;;;;5100891;27;19935;-82
2023/09/29 09:01:07;;;;;;;;;;;19.90;99.90;;;;;;5097348;28;19976;-83
2023/09/29 09:03:33;;;;;;;;;;;20.00;99.90;;;;;;5080936;28;19967;-82
2023/09/29 09:05:59;;;;;;;;;;;20.10;99.90;;;;;;5117033;27;20348;-82
2023/09/29 09:08:26;;;;;;;;;;;20.10;99.90;;;;;;5100508;28;19931;-83
2023/09/29 09:10:58;;;;;;;;;;;20.10;99.90;;;;;;5100223;28;20446;-81
2023/09/29 09:13:27;;;;;;;;;;;20.20;99.90;;;;;;5116398;27;20305;-80
2023/09/29 09:16:00;;;;;;;;;;;20.20;99.90;;;;;;5133685;27;19931;-80
2023/09/29 09:18:27;;;;;;;;;;;20.20;99.90;;;;;;5097940;28;20330;-82
2023/09/29 09:20:57;;;;;;;;;;;20.20;99.90;;;;;;5098565;28;19928;-82
2023/09/29 09:23:23;;;;;;;;;;;20.30;99.90;;;;;;5081861;28;19931;-83
2023/09/29 09:25:49;;;;;;;;;;;20.40;99.90;;;;;;5082942;28;20018;-82
2023/09/29 09:28:18;;;;;;;;;;;20.40;99.90;;;;;;5098662;28;19977;-82
2023/09/29 09:30:51;;;;;;;;;;;20.40;99.90;;;;;;5129639;27;20346;-82
2023/09/29 09:33:27;;;;;;;;;;;20.40;99.90;;;;;;5099667;28;19938;-83
2023/09/29 09:36:03;;;;;;;;;;;20.40;99.90;;;;;;5100058;28;19927;-84
2023/09/29 09:38:32;;;;;;;;;;;20.30;99.90;;;;;;5131011;27;19932;-83
2023/09/29 09:40:59;;;;;;;;;;;20.30;99.90;;;;;;5095662;28;19971;-84
2023/09/29 09:43:25;;;;;;;;;;;20.40;99.90;;;;;;5084195;28;19983;-85
2023/09/29 09:46:02;;;;;;;;;;;20.40;99.90;;;;;;5079401;28;20451;-84
2023/09/29 09:48:31;;;;;;;;;;;20.40;99.90;;;;;;5082074;28;19932;-83
2023/09/29 09:50:59;;;;;;;;;;;20.40;99.90;;;;;;5082063;28;20044;-83
2023/09/29 09:53:27;;;;;;;;;;;20.50;99.90;;;;;;5115392;27;20523;-84
2023/09/29 09:55:55;;;;;;;;;;;20.40;99.90;;;;;;5100106;28;20030;-84
2023/09/29 09:58:22;;;;;;;;;;;20.40;99.90;;;;;;5079591;28;19928;-85
2023/09/29 10:00:55;;;;;;;;;;;20.40;99.90;;;;;;5081815;28;19978;-85
2023/09/29 10:03:21;;;;;;;;;;;20.50;99.90;;;;;;5082839;28;20376;-84
2023/09/29 10:05:51;;;;;;;;;;;20.60;99.90;;;;;;5079740;28;19931;-83
2023/09/29 10:08:25;;;;;;;;;;;20.60;99.90;;;;;;5098096;28;19946;-81
2023/09/29 10:10:50;;;;;;;;;;;20.70;99.90;;;;;;5082417;28;20294;-81
2023/09/29 10:13:16;;;;;;;;;;;20.70;99.90;;;;;;5095171;28;19923;-81
2023/09/29 10:15:42;;;;;;;;;;;20.60;99.90;;;;;;5110794;27;21029;-79
2023/09/29 10:18:18;;;;;;;;;;;20.60;99.90;;;;;;5099301;28;19970;-79
2023/09/29 10:20:55;;;;;;;;;;;20.60;99.90;;;;;;5081581;28;19932;-79
2023/09/29 10:23:25;;;;;;;;;;;20.50;99.90;;;;;;5079827;28;19927;-79
2023/09/29 10:25:58;;;;;;;;;;;20.50;99.90;;;;;;5098062;28;19989;-78
2023/09/29 10:28:34;;;;;;;;;;;20.50;99.90;;;;;;5108568;27;20402;-78
2023/09/29 10:31:09;;;;;;;;;;;20.50;99.90;;;;;;5107643;27;19931;-79
2023/09/29 10:33:50;;;;;;;;;;;20.40;99.90;;;;;;5093227;28;19932;-78
2023/09/29 10:36:16;;;;;;;;;;;20.40;99.90;;;;;;5092928;28;20386;-79
2023/09/29 10:38:43;;;;;;;;;;;20.40;99.90;;;;;;5081525;28;19931;-80
2023/09/29 10:41:09;;;;;;;;;;;20.30;99.90;;;;;;5077639;28;20173;-79
2023/09/29 10:43:36;;;;;;;;;;;20.30;99.90;;;;;;5096114;28;19931;-80
2023/09/29 10:46:11;;;;;;;;;;;20.20;99.90;;;;;;5079031;28;19932;-79
2023/09/29 10:48:43;;;;;;;;;;;20.20;99.90;;;;;;5079436;28;19938;-79
2023/09/29 10:51:09;;;;;;;;;;;20.20;99.90;;;;;;5095039;28;20575;-79
2023/09/29 10:53:36;;;;;;;;;;;20.10;99.90;;;;;;5079834;28;19924;-80
2023/09/29 10:56:03;;;;;;;;;;;20.10;99.90;;;;;;5080365;28;19924;-79
2023/09/29 10:58:36;;;;;;;;;;;20.10;99.90;;;;;;5096388;28;20388;-80
2023/09/29 11:01:05;;;;;;;;;;;20.00;99.90;;;;;;5067681;28;20034;-80
2023/09/29 11:03:30;;;;;;;;;;;20.10;99.90;;;;;;5076393;28;19927;-80
2023/09/29 11:06:08;;;;;;;;;;;20.10;99.90;;;;;;5094780;28;20452;-80
2023/09/29 11:08:38;;;;;;;;;;;20.20;99.90;;;;;;5095942;28;19941;-80
2023/09/29 11:11:07;;;;;;;;;;;20.30;99.90;;;;;;5078790;28;19935;-85
2023/09/29 11:13:33;;;;;;;;;;;20.30;99.90;;;;;;5098329;28;19931;-85
2023/09/29 11:15:59;;;;;;;;;;;20.30;99.90;;;;;;5096501;28;19995;-84
2023/09/29 11:18:28;;;;;;;;;;;20.40;99.90;;;;;;5081138;28;20014;-83
2023/09/29 11:20:53;;;;;;;;;;;20.30;99.90;;;;;;5096558;28;20072;-83
2023/09/29 11:23:19;;;;;;;;;;;20.30;99.90;;;;;;5098097;28;20359;-80
2023/09/29 11:25:49;;;;;;;;;;;20.30;99.90;;;;;;5080652;28;19924;-79
2023/09/29 11:28:15;;;;;;;;;;;20.30;99.90;;;;;;5102447;27;19928;-80
2023/09/29 11:30:44;;;;;;;;;;;20.30;99.90;;;;;;5082437;28;19931;-78
2023/09/29 11:33:15;;;;;;;;;;;20.20;99.90;;;;;;5101694;28;19932;-77
2023/09/29 11:35:45;;;;;;;;;;;20.20;99.90;;;;;;5135671;27;19932;-76
2023/09/29 11:38:16;;;;;;;;;;;20.20;99.90;;;;;;5098610;28;19928;-77
2023/09/29 11:40:42;;;;;;;;;;;20.10;99.90;;;;;;5101364;28;21486;-76
2023/09/29 11:43:07;;;;;;;;;;;20.00;99.90;;;;;;5097222;28;19981;-76
2023/09/29 11:45:33;;;;;;;;;;;20.00;99.90;;;;;;5118105;27;20328;-76
2023/09/29 11:47:59;;;;;;;;;;;19.90;99.90;;;;;;5087089;28;19936;-76
2023/09/29 11:50:25;;;;;;;;;;;19.90;99.90;;;;;;5099131;28;19973;-80
2023/09/29 11:52:51;;;;;;;;;;;19.90;99.90;;;;;;5099480;28;19932;-80
2023/09/29 11:55:16;;;;;;;;;;;19.90;99.90;;;;;;5101427;28;20019;-78
2023/09/29 11:57:42;;;;;;;;;;;19.90;99.90;;;;;;5112633;27;20015;-78
2023/09/29 12:00:11;;;;;;;;;;;20.00;99.90;;;;;;5116593;27;19931;-81
2023/09/29 12:02:37;;;;;;;;;;;20.00;99.90;;;;;;5100301;28;20338;-76
2023/09/29 12:05:06;;;;;;;;;;;20.10;99.90;;;;;;5101263;28;20125;-77
2023/09/29 12:07:32;;;;;;;;;;;20.20;99.90;;;;;;5098880;27;20803;-77
2023/09/29 12:09:58;;;;;;;;;;;20.20;99.90;;;;;;5083092;28;20072;-76
2023/09/29 12:12:25;;;;;;;;;;;20.30;99.90;;;;;;5098181;28;19940;-77
2023/09/29 12:14:53;;;;;;;;;;;20.30;99.90;;;;;;5083217;28;19939;-78
2023/09/29 12:17:20;;;;;;;;;;;20.30;99.90;;;;;;5080488;27;19931;-78
2023/09/29 12:19:46;;;;;;;;;;;20.30;99.90;;;;;;5100005;28;19923;-77
2023/09/29 12:22:12;;;;;;;;;;;20.30;99.90;;;;;;5099367;28;19927;-77
2023/09/29 12:24:40;;;;;;;;;;;20.30;99.90;;;;;;5079519;28;20002;-76
2023/09/29 12:27:09;;;;;;;;;;;20.30;99.90;;;;;;5083669;28;20539;-76
2023/09/29 12:29:35;;;;;;;;;;;20.30;99.90;;;;;;5099421;27;19936;-76
2023/09/29 12:32:01;;;;;;;;;;;20.20;99.90;;;;;;5082992;28;19924;-76
2023/09/29 12:34:32;;;;;;;;;;;20.10;99.90;;;;;;5113445;27;19927;-76
2023/09/29 12:36:58;;;;;;;;;;;20.10;99.90;;;;;;5099810;28;19934;-77
2023/09/29 12:39:24;;;;;;;;;;;20.00;99.90;;;;;;5083420;28;19931;-77
2023/09/29 12:41:49;;;;;;;;;;;19.90;99.90;;;;;;5083461;28;19935;-79
2023/09/29 12:44:15;;;;;;;;;;;19.90;99.90;;;;;;5097983;28;19947;-78
2023/09/29 12:46:41;;;;;;;;;;;19.80;99.90;;;;;;5100953;28;19931;-78
2023/09/29 12:49:07;;;;;;;;;;;19.70;99.90;;;;;;5084831;28;19939;-78
2023/09/29 12:51:32;;;;;;;;;;;19.60;99.90;;;;;;5083610;28;19932;-79
2023/09/29 12:53:59;;;;;;;;;;;19.50;99.90;;;;;;5131722;27;20079;-75
2023/09/29 12:56:25;;;;;;;;;;;19.40;99.90;;;;;;5114291;27;19924;-76
2023/09/29 12:58:52;;;;;;;;;;;19.40;99.90;;;;;;5099063;27;20366;-76
2023/09/29 13:01:17;;;;;;;;;;;19.40;99.90;;;;;;5099099;28;19982;-75
2023/09/29 13:03:46;;;;;;;;;;;19.30;99.90;;;;;;5101081;28;19967;-76
2023/09/29 13:06:12;;;;;;;;;;;19.30;99.90;;;;;;5080815;28;20654;-76
2023/09/29 13:08:37;;;;;;;;;;;19.20;99.90;;;;;;5082796;28;19971;-76
2023/09/29 13:11:04;;;;;;;;;;;19.10;99.90;;;;;;5083812;28;19932;-76
2023/09/29 13:13:30;;;;;;;;;;;18.90;99.90;;;;;;5101190;27;19942;-77
2023/09/29 13:15:55;;;;;;;;;;;18.60;99.90;;;;;;5079705;28;20302;-76
2023/09/29 13:18:22;;;;;;;;;;;18.50;99.90;;;;;;5097884;28;19930;-77
2023/09/29 13:20:48;;;;;;;;;;;18.30;99.90;;;;;;5100614;28;20672;-76
2023/09/29 13:23:14;;;;;;;;;;;18.20;99.90;;;;;;5094736;28;19967;-77
2023/09/29 13:25:41;;;;;;;;;;;18.20;99.90;;;;;;5100073;28;19937;-77
2023/09/29 13:28:07;;;;;;;;;;;18.10;99.90;;;;;;5083080;28;19928;-77
2023/09/29 13:30:32;;;;;;;;;;;18.20;99.90;;;;;;5098773;28;19931;-77
2023/09/29 13:32:58;;;;;;;;;;;18.20;99.90;;;;;;5081837;28;21643;-77
2023/09/29 13:35:24;;;;;;;;;;;18.20;99.90;;;;;;5098504;28;19931;-77
2023/09/29 13:37:50;;;;;;;;;;;18.20;99.90;;;;;;5079176;28;20302;-77
2023/09/29 13:40:16;;;;;;;;;;;18.20;99.90;;;;;;5099775;28;20386;-77
2023/09/29 13:42:42;;;;;;;;;;;18.10;99.90;;;;;;5113864;27;20011;-78
2023/09/29 13:45:11;;;;;;;;;;;18.00;99.90;;;;;;5082704;28;20015;-77
2023/09/29 13:47:37;;;;;;;;;;;17.90;99.90;;;;;;5132456;27;19930;-77
2023/09/29 13:50:04;;;;;;;;;;;17.80;99.90;;;;;;5096664;28;20026;-77
2023/09/29 13:52:30;;;;;;;;;;;17.70;99.90;;;;;;5100525;27;19931;-77
2023/09/29 13:54:59;;;;;;;;;;;17.70;99.90;;;;;;5129712;27;19924;-77
2023/09/29 13:57:25;;;;;;;;;;;17.70;99.90;;;;;;5099084;28;19931;-77
2023/09/29 13:59:50;;;;;;;;;;;17.70;99.90;;;;;;5111629;27;20356;-76
2023/09/29 14:02:16;;;;;;;;;;;17.60;99.90;;;;;;5083388;28;19936;-76
2023/09/29 14:04:44;;;;;;;;;;;17.60;99.90;;;;;;5097897;28;20271;-76
2023/09/29 14:07:10;;;;;;;;;;;17.70;99.90;;;;;;5079717;28;19938;-75
2023/09/29 14:09:36;;;;;;;;;;;17.70;99.90;;;;;;5097937;28;19931;-75
2023/09/29 14:12:03;;;;;;;;;;;17.70;99.90;;;;;;5081369;28;19935;-74
2023/09/29 14:14:29;;;;;;;;;;;17.70;99.90;;;;;;5098035;28;19963;-77